sensor_id;sensor_type;location;lat;lon;timestamp;P1;durP1;ratioP1;P2;durP2;ratioP2
23113;SDS011;11726;50.122;8.832;2023-04-15T00:00:56;7.60;;;5.07;;
23113;SDS011;11726;50.122;8.832;2023-04-15T00:03:24;9.57;;;5.28;;
23113;SDS011;11726;50.122;8.832;2023-04-15T00:05:51;10.23;;;5.53;;
23113;SDS011;11726;50.122;8.832;2023-04-15T00:08:18;8.60;;;5.20;;
23113;SDS011;11726;50.122;8.832;2023-04-15T00:10:45;9.77;;;5.32;;
23113;SDS011;11726;50.122;8.832;2023-04-15T00:13:12;7.57;;;5.38;;
23113;SDS011;11726;50.122;8.832;2023-04-15T00:15:39;7.75;;;4.93;;
23113;SDS011;11726;50.122;8.832;2023-04-15T00:18:06;7.07;;;4.63;;
23113;SDS011;11726;50.122;8.832;2023-04-15T00:20:33;6.88;;;4.63;;
23113;SDS011;11726;50.122;8.832;2023-04-15T00:23:01;7.75;;;4.93;;
23113;SDS011;11726;50.122;8.832;2023-04-15T00:25:28;6.28;;;4.50;;
23113;SDS011;11726;50.122;8.832;2023-04-15T00:27:55;9.30;;;4.78;;
23113;SDS011;11726;50.122;8.832;2023-04-15T00:30:22;6.43;;;4.35;;
23113;SDS011;11726;50.122;8.832;2023-04-15T00:32:49;8.55;;;5.03;;
23113;SDS011;11726;50.122;8.832;2023-04-15T00:35:16;7.43;;;4.63;;
23113;SDS011;11726;50.122;8.832;2023-04-15T00:37:43;6.38;;;4.55;;
23113;SDS011;11726;50.122;8.832;2023-04-15T00:40:12;6.80;;;4.60;;
23113;SDS011;11726;50.122;8.832;2023-04-15T00:42:39;5.50;;;4.25;;
23113;SDS011;11726;50.122;8.832;2023-04-15T00:45:06;7.15;;;4.75;;
23113;SDS011;11726;50.122;8.832;2023-04-15T00:47:34;8.18;;;4.57;;
23113;SDS011;11726;50.122;8.832;2023-04-15T00:50:03;9.68;;;4.70;;
23113;SDS011;11726;50.122;8.832;2023-04-15T00:52:30;9.02;;;5.00;;
23113;SDS011;11726;50.122;8.832;2023-04-15T00:54:57;9.48;;;5.13;;
23113;SDS011;11726;50.122;8.832;2023-04-15T00:57:25;8.63;;;4.70;;
23113;SDS011;11726;50.122;8.832;2023-04-15T00:59:54;11.18;;;5.28;;
23113;SDS011;11726;50.122;8.832;2023-04-15T01:02:22;9.38;;;5.20;;
23113;SDS011;11726;50.122;8.832;2023-04-15T01:04:50;6.90;;;4.53;;
23113;SDS011;11726;50.122;8.832;2023-04-15T01:07:17;5.22;;;4.70;;
23113;SDS011;11726;50.122;8.832;2023-04-15T01:09:44;7.80;;;5.30;;
23113;SDS011;11726;50.122;8.832;2023-04-15T01:12:11;9.85;;;5.25;;
23113;SDS011;11726;50.122;8.832;2023-04-15T01:14:40;8.30;;;5.38;;
23113;SDS011;11726;50.122;8.832;2023-04-15T01:17:07;6.18;;;4.70;;
23113;SDS011;11726;50.122;8.832;2023-04-15T01:19:37;5.90;;;4.93;;
23113;SDS011;11726;50.122;8.832;2023-04-15T01:22:04;7.07;;;5.50;;
23113;SDS011;11726;50.122;8.832;2023-04-15T01:24:31;7.10;;;4.85;;
23113;SDS011;11726;50.122;8.832;2023-04-15T01:26:59;10.65;;;5.78;;
23113;SDS011;11726;50.122;8.832;2023-04-15T01:29:25;9.07;;;5.43;;
23113;SDS011;11726;50.122;8.832;2023-04-15T01:31:53;10.85;;;6.18;;
23113;SDS011;11726;50.122;8.832;2023-04-15T01:34:21;7.50;;;5.10;;
23113;SDS011;11726;50.122;8.832;2023-04-15T01:36:48;9.50;;;5.55;;
23113;SDS011;11726;50.122;8.832;2023-04-15T01:39:15;10.52;;;5.57;;
23113;SDS011;11726;50.122;8.832;2023-04-15T01:41:41;8.40;;;5.32;;
23113;SDS011;11726;50.122;8.832;2023-04-15T01:44:08;8.45;;;5.50;;
23113;SDS011;11726;50.122;8.832;2023-04-15T01:46:35;7.25;;;5.60;;
23113;SDS011;11726;50.122;8.832;2023-04-15T01:49:02;9.43;;;5.53;;
23113;SDS011;11726;50.122;8.832;2023-04-15T01:51:29;7.68;;;5.22;;
23113;SDS011;11726;50.122;8.832;2023-04-15T01:53:55;11.40;;;5.40;;
23113;SDS011;11726;50.122;8.832;2023-04-15T01:56:22;11.18;;;5.93;;
23113;SDS011;11726;50.122;8.832;2023-04-15T01:58:49;9.48;;;5.40;;
23113;SDS011;11726;50.122;8.832;2023-04-15T02:01:16;10.38;;;5.70;;
23113;SDS011;11726;50.122;8.832;2023-04-15T02:03:45;11.20;;;5.50;;
23113;SDS011;11726;50.122;8.832;2023-04-15T02:06:13;8.45;;;5.32;;
23113;SDS011;11726;50.122;8.832;2023-04-15T02:08:39;8.60;;;5.20;;
23113;SDS011;11726;50.122;8.832;2023-04-15T02:11:06;6.95;;;5.28;;
23113;SDS011;11726;50.122;8.832;2023-04-15T02:13:34;8.13;;;4.90;;
23113;SDS011;11726;50.122;8.832;2023-04-15T02:16:01;7.95;;;5.85;;
23113;SDS011;11726;50.122;8.832;2023-04-15T02:18:28;6.82;;;4.72;;
23113;SDS011;11726;50.122;8.832;2023-04-15T02:20:55;8.43;;;5.30;;
23113;SDS011;11726;50.122;8.832;2023-04-15T02:23:23;8.98;;;5.70;;
23113;SDS011;11726;50.122;8.832;2023-04-15T02:25:50;9.18;;;5.22;;
23113;SDS011;11726;50.122;8.832;2023-04-15T02:28:19;8.13;;;5.50;;
23113;SDS011;11726;50.122;8.832;2023-04-15T02:30:46;7.32;;;5.53;;
23113;SDS011;11726;50.122;8.832;2023-04-15T02:33:16;8.25;;;5.57;;
23113;SDS011;11726;50.122;8.832;2023-04-15T02:35:43;7.95;;;5.70;;
23113;SDS011;11726;50.122;8.832;2023-04-15T02:38:10;8.25;;;5.70;;
23113;SDS011;11726;50.122;8.832;2023-04-15T02:40:37;9.75;;;5.22;;
23113;SDS011;11726;50.122;8.832;2023-04-15T02:43:04;6.60;;;5.45;;
23113;SDS011;11726;50.122;8.832;2023-04-15T02:45:32;8.50;;;5.32;;
23113;SDS011;11726;50.122;8.832;2023-04-15T02:47:59;9.25;;;5.38;;
23113;SDS011;11726;50.122;8.832;2023-04-15T02:50:31;7.13;;;4.97;;
23113;SDS011;11726;50.122;8.832;2023-04-15T02:52:58;8.90;;;5.00;;
23113;SDS011;11726;50.122;8.832;2023-04-15T02:55:27;9.68;;;5.20;;
23113;SDS011;11726;50.122;8.832;2023-04-15T02:57:54;8.75;;;5.90;;
23113;SDS011;11726;50.122;8.832;2023-04-15T03:00:21;9.55;;;6.25;;
23113;SDS011;11726;50.122;8.832;2023-04-15T03:02:50;10.90;;;5.80;;
23113;SDS011;11726;50.122;8.832;2023-04-15T03:05:21;7.28;;;4.80;;
23113;SDS011;11726;50.122;8.832;2023-04-15T03:07:51;7.82;;;5.18;;
23113;SDS011;11726;50.122;8.832;2023-04-15T03:10:18;7.95;;;5.43;;
23113;SDS011;11726;50.122;8.832;2023-04-15T03:12:46;8.50;;;5.25;;
23113;SDS011;11726;50.122;8.832;2023-04-15T03:15:13;7.95;;;5.25;;
23113;SDS011;11726;50.122;8.832;2023-04-15T03:17:40;8.13;;;5.18;;
23113;SDS011;11726;50.122;8.832;2023-04-15T03:20:17;9.45;;;5.63;;
23113;SDS011;11726;50.122;8.832;2023-04-15T03:22:45;8.65;;;4.97;;
23113;SDS011;11726;50.122;8.832;2023-04-15T03:25:11;7.70;;;5.80;;
23113;SDS011;11726;50.122;8.832;2023-04-15T03:27:38;9.73;;;5.57;;
23113;SDS011;11726;50.122;8.832;2023-04-15T03:30:06;9.20;;;5.70;;
23113;SDS011;11726;50.122;8.832;2023-04-15T03:32:34;9.43;;;5.32;;
23113;SDS011;11726;50.122;8.832;2023-04-15T03:35:00;7.85;;;5.32;;
23113;SDS011;11726;50.122;8.832;2023-04-15T03:37:27;7.43;;;5.40;;
23113;SDS011;11726;50.122;8.832;2023-04-15T03:39:54;9.00;;;5.53;;
23113;SDS011;11726;50.122;8.832;2023-04-15T03:42:21;7.72;;;5.60;;
23113;SDS011;11726;50.122;8.832;2023-04-15T03:44:47;7.03;;;5.60;;
23113;SDS011;11726;50.122;8.832;2023-04-15T03:47:14;9.40;;;5.85;;
23113;SDS011;11726;50.122;8.832;2023-04-15T03:49:41;7.68;;;5.25;;
23113;SDS011;11726;50.122;8.832;2023-04-15T03:52:08;11.25;;;5.30;;
23113;SDS011;11726;50.122;8.832;2023-04-15T03:54:34;9.88;;;6.05;;
23113;SDS011;11726;50.122;8.832;2023-04-15T03:57:01;8.00;;;5.35;;
23113;SDS011;11726;50.122;8.832;2023-04-15T03:59:28;7.28;;;5.35;;
23113;SDS011;11726;50.122;8.832;2023-04-15T04:01:55;8.88;;;5.82;;
23113;SDS011;11726;50.122;8.832;2023-04-15T04:04:22;8.80;;;5.93;;
23113;SDS011;11726;50.122;8.832;2023-04-15T04:06:48;8.40;;;6.00;;
23113;SDS011;11726;50.122;8.832;2023-04-15T04:09:15;9.30;;;5.97;;
23113;SDS011;11726;50.122;8.832;2023-04-15T04:11:42;9.23;;;6.13;;
23113;SDS011;11726;50.122;8.832;2023-04-15T04:14:10;9.95;;;5.50;;
23113;SDS011;11726;50.122;8.832;2023-04-15T04:16:37;8.70;;;5.32;;
23113;SDS011;11726;50.122;8.832;2023-04-15T04:19:04;7.88;;;5.22;;
23113;SDS011;11726;50.122;8.832;2023-04-15T04:21:30;11.02;;;5.95;;
23113;SDS011;11726;50.122;8.832;2023-04-15T04:23:59;7.32;;;5.25;;
23113;SDS011;11726;50.122;8.832;2023-04-15T04:26:25;8.85;;;5.57;;
23113;SDS011;11726;50.122;8.832;2023-04-15T04:28:52;8.00;;;5.10;;
23113;SDS011;11726;50.122;8.832;2023-04-15T04:31:19;8.65;;;5.88;;
23113;SDS011;11726;50.122;8.832;2023-04-15T04:33:46;9.40;;;5.40;;
23113;SDS011;11726;50.122;8.832;2023-04-15T04:36:13;9.88;;;5.85;;
23113;SDS011;11726;50.122;8.832;2023-04-15T04:38:39;9.07;;;5.43;;
23113;SDS011;11726;50.122;8.832;2023-04-15T04:41:06;6.93;;;4.90;;
23113;SDS011;11726;50.122;8.832;2023-04-15T04:43:33;7.72;;;5.13;;
23113;SDS011;11726;50.122;8.832;2023-04-15T04:45:59;8.15;;;5.07;;
23113;SDS011;11726;50.122;8.832;2023-04-15T04:48:26;8.13;;;5.32;;
23113;SDS011;11726;50.122;8.832;2023-04-15T04:50:53;6.13;;;5.20;;
23113;SDS011;11726;50.122;8.832;2023-04-15T04:53:19;8.48;;;5.38;;
23113;SDS011;11726;50.122;8.832;2023-04-15T04:55:46;6.78;;;5.20;;
23113;SDS011;11726;50.122;8.832;2023-04-15T04:58:13;6.00;;;5.38;;
23113;SDS011;11726;50.122;8.832;2023-04-15T05:00:40;8.80;;;5.32;;
23113;SDS011;11726;50.122;8.832;2023-04-15T05:03:08;7.57;;;5.28;;
23113;SDS011;11726;50.122;8.832;2023-04-15T05:05:35;8.10;;;5.63;;
23113;SDS011;11726;50.122;8.832;2023-04-15T05:08:04;8.80;;;5.03;;
23113;SDS011;11726;50.122;8.832;2023-04-15T05:10:31;6.47;;;5.35;;
23113;SDS011;11726;50.122;8.832;2023-04-15T05:12:57;10.07;;;6.13;;
23113;SDS011;11726;50.122;8.832;2023-04-15T05:15:24;10.25;;;6.10;;
23113;SDS011;11726;50.122;8.832;2023-04-15T05:17:51;10.40;;;5.82;;
23113;SDS011;11726;50.122;8.832;2023-04-15T05:20:18;15.02;;;6.68;;
23113;SDS011;11726;50.122;8.832;2023-04-15T05:22:44;8.70;;;6.25;;
23113;SDS011;11726;50.122;8.832;2023-04-15T05:25:11;8.70;;;6.78;;
23113;SDS011;11726;50.122;8.832;2023-04-15T05:27:38;9.93;;;5.88;;
23113;SDS011;11726;50.122;8.832;2023-04-15T05:30:05;13.65;;;6.55;;
23113;SDS011;11726;50.122;8.832;2023-04-15T05:32:32;10.00;;;6.13;;
23113;SDS011;11726;50.122;8.832;2023-04-15T05:34:59;10.88;;;6.55;;
23113;SDS011;11726;50.122;8.832;2023-04-15T05:37:27;7.40;;;5.88;;
23113;SDS011;11726;50.122;8.832;2023-04-15T05:39:54;12.52;;;6.07;;
23113;SDS011;11726;50.122;8.832;2023-04-15T05:42:20;9.18;;;6.18;;
23113;SDS011;11726;50.122;8.832;2023-04-15T05:44:47;9.85;;;6.18;;
23113;SDS011;11726;50.122;8.832;2023-04-15T05:47:14;8.82;;;5.97;;
23113;SDS011;11726;50.122;8.832;2023-04-15T05:49:41;12.75;;;6.00;;
23113;SDS011;11726;50.122;8.832;2023-04-15T05:52:07;9.00;;;5.72;;
23113;SDS011;11726;50.122;8.832;2023-04-15T05:54:34;7.32;;;6.10;;
23113;SDS011;11726;50.122;8.832;2023-04-15T05:57:03;9.65;;;6.50;;
23113;SDS011;11726;50.122;8.832;2023-04-15T05:59:29;7.90;;;5.22;;
23113;SDS011;11726;50.122;8.832;2023-04-15T06:01:56;9.07;;;6.40;;
23113;SDS011;11726;50.122;8.832;2023-04-15T06:04:23;8.82;;;6.55;;
23113;SDS011;11726;50.122;8.832;2023-04-15T06:06:51;10.98;;;6.47;;
23113;SDS011;11726;50.122;8.832;2023-04-15T06:09:18;9.15;;;6.88;;
23113;SDS011;11726;50.122;8.832;2023-04-15T06:11:45;10.65;;;7.10;;
23113;SDS011;11726;50.122;8.832;2023-04-15T06:14:12;13.32;;;7.65;;
23113;SDS011;11726;50.122;8.832;2023-04-15T06:16:38;9.25;;;6.70;;
23113;SDS011;11726;50.122;8.832;2023-04-15T06:19:05;8.18;;;6.63;;
23113;SDS011;11726;50.122;8.832;2023-04-15T06:21:32;9.93;;;6.45;;
23113;SDS011;11726;50.122;8.832;2023-04-15T06:23:58;9.90;;;6.72;;
23113;SDS011;11726;50.122;8.832;2023-04-15T06:26:28;13.98;;;7.18;;
23113;SDS011;11726;50.122;8.832;2023-04-15T06:28:56;9.82;;;6.38;;
23113;SDS011;11726;50.122;8.832;2023-04-15T06:31:23;9.60;;;6.70;;
23113;SDS011;11726;50.122;8.832;2023-04-15T06:33:49;8.40;;;6.55;;
23113;SDS011;11726;50.122;8.832;2023-04-15T06:36:16;10.80;;;7.00;;
23113;SDS011;11726;50.122;8.832;2023-04-15T06:38:43;10.48;;;7.13;;
23113;SDS011;11726;50.122;8.832;2023-04-15T06:41:09;9.68;;;6.70;;
23113;SDS011;11726;50.122;8.832;2023-04-15T06:43:36;9.60;;;7.18;;
23113;SDS011;11726;50.122;8.832;2023-04-15T06:46:02;10.43;;;7.25;;
23113;SDS011;11726;50.122;8.832;2023-04-15T06:48:29;8.38;;;6.70;;
23113;SDS011;11726;50.122;8.832;2023-04-15T06:50:56;7.75;;;6.45;;
23113;SDS011;11726;50.122;8.832;2023-04-15T06:53:24;8.73;;;6.60;;
23113;SDS011;11726;50.122;8.832;2023-04-15T06:55:53;12.05;;;6.85;;
23113;SDS011;11726;50.122;8.832;2023-04-15T06:58:20;9.73;;;6.97;;
23113;SDS011;11726;50.122;8.832;2023-04-15T07:00:46;13.35;;;8.00;;
23113;SDS011;11726;50.122;8.832;2023-04-15T07:03:14;11.18;;;8.18;;
23113;SDS011;11726;50.122;8.832;2023-04-15T07:05:41;12.55;;;7.90;;
23113;SDS011;11726;50.122;8.832;2023-04-15T07:08:07;14.32;;;7.72;;
23113;SDS011;11726;50.122;8.832;2023-04-15T07:10:34;14.65;;;7.80;;
23113;SDS011;11726;50.122;8.832;2023-04-15T07:13:03;14.07;;;7.32;;
23113;SDS011;11726;50.122;8.832;2023-04-15T07:15:30;10.32;;;7.38;;
23113;SDS011;11726;50.122;8.832;2023-04-15T07:17:57;9.48;;;7.65;;
23113;SDS011;11726;50.122;8.832;2023-04-15T07:20:24;10.18;;;7.82;;
23113;SDS011;11726;50.122;8.832;2023-04-15T07:22:51;12.55;;;7.47;;
23113;SDS011;11726;50.122;8.832;2023-04-15T07:25:18;9.60;;;7.25;;
23113;SDS011;11726;50.122;8.832;2023-04-15T07:27:45;13.05;;;7.93;;
23113;SDS011;11726;50.122;8.832;2023-04-15T07:30:12;13.30;;;8.20;;
23113;SDS011;11726;50.122;8.832;2023-04-15T07:32:40;11.77;;;8.70;;
23113;SDS011;11726;50.122;8.832;2023-04-15T07:35:08;12.40;;;8.30;;
23113;SDS011;11726;50.122;8.832;2023-04-15T07:37:34;12.60;;;8.20;;
23113;SDS011;11726;50.122;8.832;2023-04-15T07:40:01;10.35;;;7.55;;
23113;SDS011;11726;50.122;8.832;2023-04-15T07:42:32;11.35;;;8.23;;
23113;SDS011;11726;50.122;8.832;2023-04-15T07:44:59;11.05;;;8.38;;
23113;SDS011;11726;50.122;8.832;2023-04-15T07:47:26;10.50;;;8.50;;
23113;SDS011;11726;50.122;8.832;2023-04-15T07:49:53;11.57;;;7.78;;
23113;SDS011;11726;50.122;8.832;2023-04-15T07:52:19;10.77;;;8.50;;
23113;SDS011;11726;50.122;8.832;2023-04-15T07:54:46;10.95;;;8.02;;
23113;SDS011;11726;50.122;8.832;2023-04-15T07:57:13;11.75;;;7.90;;
23113;SDS011;11726;50.122;8.832;2023-04-15T07:59:40;11.25;;;7.35;;
23113;SDS011;11726;50.122;8.832;2023-04-15T08:02:07;12.52;;;7.40;;
23113;SDS011;11726;50.122;8.832;2023-04-15T08:04:34;10.77;;;7.35;;
23113;SDS011;11726;50.122;8.832;2023-04-15T08:07:01;9.15;;;7.60;;
23113;SDS011;11726;50.122;8.832;2023-04-15T08:09:29;8.20;;;6.97;;
23113;SDS011;11726;50.122;8.832;2023-04-15T08:11:55;10.07;;;7.05;;
23113;SDS011;11726;50.122;8.832;2023-04-15T08:14:23;9.30;;;7.10;;
23113;SDS011;11726;50.122;8.832;2023-04-15T08:16:49;7.30;;;6.50;;
23113;SDS011;11726;50.122;8.832;2023-04-15T08:19:19;9.18;;;6.82;;
23113;SDS011;11726;50.122;8.832;2023-04-15T08:21:46;7.50;;;6.32;;
23113;SDS011;11726;50.122;8.832;2023-04-15T08:24:13;8.98;;;6.85;;
23113;SDS011;11726;50.122;8.832;2023-04-15T08:26:40;9.27;;;7.00;;
23113;SDS011;11726;50.122;8.832;2023-04-15T08:29:07;9.77;;;6.38;;
23113;SDS011;11726;50.122;8.832;2023-04-15T08:31:34;7.50;;;6.45;;
23113;SDS011;11726;50.122;8.832;2023-04-15T08:34:01;8.20;;;5.70;;
23113;SDS011;11726;50.122;8.832;2023-04-15T08:36:28;6.18;;;5.35;;
23113;SDS011;11726;50.122;8.832;2023-04-15T08:38:54;7.53;;;5.38;;
23113;SDS011;11726;50.122;8.832;2023-04-15T08:41:24;6.25;;;5.30;;
23113;SDS011;11726;50.122;8.832;2023-04-15T08:44:00;7.68;;;5.22;;
23113;SDS011;11726;50.122;8.832;2023-04-15T08:46:29;5.28;;;4.50;;
23113;SDS011;11726;50.122;8.832;2023-04-15T08:48:57;6.22;;;5.00;;
23113;SDS011;11726;50.122;8.832;2023-04-15T08:51:24;5.60;;;4.72;;
23113;SDS011;11726;50.122;8.832;2023-04-15T08:53:51;8.05;;;4.32;;
23113;SDS011;11726;50.122;8.832;2023-04-15T08:56:24;6.22;;;4.68;;
23113;SDS011;11726;50.122;8.832;2023-04-15T08:58:53;5.38;;;4.50;;
23113;SDS011;11726;50.122;8.832;2023-04-15T09:01:20;7.63;;;4.93;;
23113;SDS011;11726;50.122;8.832;2023-04-15T09:03:48;4.60;;;4.15;;
23113;SDS011;11726;50.122;8.832;2023-04-15T09:06:16;5.25;;;4.15;;
23113;SDS011;11726;50.122;8.832;2023-04-15T09:08:43;5.43;;;4.68;;
23113;SDS011;11726;50.122;8.832;2023-04-15T09:11:10;6.10;;;4.47;;
23113;SDS011;11726;50.122;8.832;2023-04-15T09:13:37;8.35;;;4.47;;
23113;SDS011;11726;50.122;8.832;2023-04-15T09:16:04;4.72;;;4.20;;
23113;SDS011;11726;50.122;8.832;2023-04-15T09:18:32;4.55;;;4.07;;
23113;SDS011;11726;50.122;8.832;2023-04-15T09:21:07;9.15;;;4.80;;
23113;SDS011;11726;50.122;8.832;2023-04-15T09:23:39;4.93;;;4.43;;
23113;SDS011;11726;50.122;8.832;2023-04-15T09:26:07;9.07;;;4.32;;
23113;SDS011;11726;50.122;8.832;2023-04-15T09:28:40;6.93;;;4.50;;
23113;SDS011;11726;50.122;8.832;2023-04-15T09:31:07;7.03;;;4.53;;
23113;SDS011;11726;50.122;8.832;2023-04-15T09:33:35;4.20;;;3.80;;
23113;SDS011;11726;50.122;8.832;2023-04-15T09:36:21;5.25;;;4.50;;
23113;SDS011;11726;50.122;8.832;2023-04-15T09:38:56;5.75;;;4.30;;
23113;SDS011;11726;50.122;8.832;2023-04-15T09:41:24;4.68;;;4.28;;
23113;SDS011;11726;50.122;8.832;2023-04-15T09:43:52;7.50;;;4.30;;
23113;SDS011;11726;50.122;8.832;2023-04-15T09:46:18;5.68;;;4.50;;
23113;SDS011;11726;50.122;8.832;2023-04-15T09:48:45;5.43;;;4.00;;
23113;SDS011;11726;50.122;8.832;2023-04-15T09:51:12;4.70;;;4.22;;
23113;SDS011;11726;50.122;8.832;2023-04-15T09:53:39;4.00;;;3.60;;
23113;SDS011;11726;50.122;8.832;2023-04-15T09:56:06;7.13;;;4.97;;
23113;SDS011;11726;50.122;8.832;2023-04-15T09:58:34;6.15;;;4.88;;
23113;SDS011;11726;50.122;8.832;2023-04-15T10:01:03;5.47;;;3.83;;
23113;SDS011;11726;50.122;8.832;2023-04-15T10:03:34;6.47;;;4.30;;
23113;SDS011;11726;50.122;8.832;2023-04-15T10:06:04;4.95;;;3.70;;
23113;SDS011;11726;50.122;8.832;2023-04-15T10:08:32;5.57;;;3.90;;
23113;SDS011;11726;50.122;8.832;2023-04-15T10:11:00;4.47;;;3.60;;
23113;SDS011;11726;50.122;8.832;2023-04-15T10:13:31;5.70;;;3.95;;
23113;SDS011;11726;50.122;8.832;2023-04-15T10:16:04;5.82;;;4.32;;
23113;SDS011;11726;50.122;8.832;2023-04-15T10:18:46;5.90;;;4.00;;
23113;SDS011;11726;50.122;8.832;2023-04-15T10:21:16;5.43;;;4.20;;
23113;SDS011;11726;50.122;8.832;2023-04-15T10:23:44;5.50;;;3.97;;
23113;SDS011;11726;50.122;8.832;2023-04-15T10:26:12;6.20;;;4.18;;
23113;SDS011;11726;50.122;8.832;2023-04-15T10:28:40;6.53;;;4.35;;
23113;SDS011;11726;50.122;8.832;2023-04-15T10:31:07;6.18;;;4.15;;
23113;SDS011;11726;50.122;8.832;2023-04-15T10:33:37;5.60;;;4.43;;
23113;SDS011;11726;50.122;8.832;2023-04-15T10:36:05;4.15;;;3.50;;
23113;SDS011;11726;50.122;8.832;2023-04-15T10:38:33;5.00;;;3.95;;
23113;SDS011;11726;50.122;8.832;2023-04-15T10:41:14;3.78;;;3.30;;
23113;SDS011;11726;50.122;8.832;2023-04-15T10:46:18;4.43;;;3.55;;
23113;SDS011;11726;50.122;8.832;2023-04-15T10:48:50;3.85;;;3.42;;
23113;SDS011;11726;50.122;8.832;2023-04-15T10:51:29;3.63;;;2.97;;
23113;SDS011;11726;50.122;8.832;2023-04-15T10:53:59;2.90;;;2.67;;
23113;SDS011;11726;50.122;8.832;2023-04-15T10:56:27;4.65;;;3.00;;
23113;SDS011;11726;50.122;8.832;2023-04-15T10:58:57;3.30;;;2.80;;
23113;SDS011;11726;50.122;8.832;2023-04-15T11:01:49;3.40;;;3.10;;
23113;SDS011;11726;50.122;8.832;2023-04-15T11:07:33;3.13;;;2.83;;
23113;SDS011;11726;50.122;8.832;2023-04-15T11:12:39;2.97;;;2.63;;
23113;SDS011;11726;50.122;8.832;2023-04-15T11:17:56;3.30;;;2.67;;
23113;SDS011;11726;50.122;8.832;2023-04-15T11:20:45;3.13;;;2.83;;
23113;SDS011;11726;50.122;8.832;2023-04-15T11:23:13;2.78;;;2.30;;
23113;SDS011;11726;50.122;8.832;2023-04-15T11:25:42;2.10;;;1.90;;
23113;SDS011;11726;50.122;8.832;2023-04-15T11:28:10;4.43;;;2.08;;
23113;SDS011;11726;50.122;8.832;2023-04-15T11:30:38;2.00;;;1.90;;
23113;SDS011;11726;50.122;8.832;2023-04-15T11:33:09;3.15;;;2.10;;
23113;SDS011;11726;50.122;8.832;2023-04-15T11:35:37;3.22;;;2.40;;
23113;SDS011;11726;50.122;8.832;2023-04-15T11:38:10;2.72;;;2.17;;
23113;SDS011;11726;50.122;8.832;2023-04-15T11:40:39;2.00;;;1.80;;
23113;SDS011;11726;50.122;8.832;2023-04-15T11:43:09;2.55;;;2.35;;
23113;SDS011;11726;50.122;8.832;2023-04-15T11:45:37;2.10;;;1.90;;
23113;SDS011;11726;50.122;8.832;2023-04-15T11:48:25;2.03;;;1.83;;
23113;SDS011;11726;50.122;8.832;2023-04-15T11:50:58;2.05;;;1.70;;
23113;SDS011;11726;50.122;8.832;2023-04-15T11:53:36;2.22;;;1.60;;
23113;SDS011;11726;50.122;8.832;2023-04-15T11:56:08;1.65;;;1.52;;
23113;SDS011;11726;50.122;8.832;2023-04-15T11:58:36;3.08;;;1.73;;
23113;SDS011;11726;50.122;8.832;2023-04-15T12:01:04;2.20;;;2.00;;
23113;SDS011;11726;50.122;8.832;2023-04-15T12:03:42;3.35;;;2.22;;
23113;SDS011;11726;50.122;8.832;2023-04-15T12:06:11;3.00;;;2.40;;
23113;SDS011;11726;50.122;8.832;2023-04-15T12:08:48;2.28;;;2.08;;
23113;SDS011;11726;50.122;8.832;2023-04-15T12:11:15;2.20;;;2.00;;
23113;SDS011;11726;50.122;8.832;2023-04-15T12:14:28;2.40;;;2.20;;
23113;SDS011;11726;50.122;8.832;2023-04-15T12:16:30;2.42;;;2.22;;
23113;SDS011;11726;50.122;8.832;2023-04-15T12:19:03;3.97;;;2.10;;
23113;SDS011;11726;50.122;8.832;2023-04-15T12:21:35;2.20;;;2.00;;
23113;SDS011;11726;50.122;8.832;2023-04-15T12:24:05;2.40;;;2.20;;
23113;SDS011;11726;50.122;8.832;2023-04-15T12:26:34;2.65;;;2.40;;
23113;SDS011;11726;50.122;8.832;2023-04-15T12:29:09;3.85;;;2.60;;
23113;SDS011;11726;50.122;8.832;2023-04-15T12:31:42;3.60;;;2.50;;
23113;SDS011;11726;50.122;8.832;2023-04-15T12:34:16;3.08;;;2.60;;
23113;SDS011;11726;50.122;8.832;2023-04-15T12:36:45;2.70;;;2.50;;
23113;SDS011;11726;50.122;8.832;2023-04-15T12:39:12;3.47;;;2.60;;
23113;SDS011;11726;50.122;8.832;2023-04-15T12:41:38;3.10;;;2.80;;
23113;SDS011;11726;50.122;8.832;2023-04-15T12:44:05;4.68;;;2.88;;
23113;SDS011;11726;50.122;8.832;2023-04-15T12:46:32;3.47;;;2.63;;
23113;SDS011;11726;50.122;8.832;2023-04-15T12:48:58;2.65;;;2.45;;
23113;SDS011;11726;50.122;8.832;2023-04-15T12:51:25;2.95;;;1.98;;
23113;SDS011;11726;50.122;8.832;2023-04-15T12:53:52;2.60;;;2.40;;
23113;SDS011;11726;50.122;8.832;2023-04-15T12:56:19;2.80;;;2.60;;
23113;SDS011;11726;50.122;8.832;2023-04-15T12:58:46;3.28;;;2.53;;
23113;SDS011;11726;50.122;8.832;2023-04-15T13:01:13;3.17;;;2.67;;
23113;SDS011;11726;50.122;8.832;2023-04-15T13:03:39;3.70;;;3.00;;
23113;SDS011;11726;50.122;8.832;2023-04-15T13:06:06;2.80;;;2.60;;
23113;SDS011;11726;50.122;8.832;2023-04-15T13:08:33;4.57;;;2.75;;
23113;SDS011;11726;50.122;8.832;2023-04-15T13:11:05;3.47;;;2.80;;
23113;SDS011;11726;50.122;8.832;2023-04-15T13:13:32;3.15;;;2.85;;
23113;SDS011;11726;50.122;8.832;2023-04-15T13:15:59;3.45;;;3.15;;
23113;SDS011;11726;50.122;8.832;2023-04-15T13:18:26;3.97;;;3.17;;
23113;SDS011;11726;50.122;8.832;2023-04-15T13:20:53;3.55;;;3.25;;
23113;SDS011;11726;50.122;8.832;2023-04-15T13:23:21;3.88;;;3.17;;
23113;SDS011;11726;50.122;8.832;2023-04-15T13:25:48;4.72;;;3.15;;
23113;SDS011;11726;50.122;8.832;2023-04-15T13:28:14;3.80;;;3.38;;
23113;SDS011;11726;50.122;8.832;2023-04-15T13:30:41;4.78;;;3.60;;
23113;SDS011;11726;50.122;8.832;2023-04-15T13:33:09;4.80;;;4.00;;
23113;SDS011;11726;50.122;8.832;2023-04-15T13:35:36;3.28;;;2.88;;
23113;SDS011;11726;50.122;8.832;2023-04-15T13:38:03;3.38;;;2.83;;
23113;SDS011;11726;50.122;8.832;2023-04-15T13:40:29;2.72;;;2.17;;
23113;SDS011;11726;50.122;8.832;2023-04-15T13:42:56;3.45;;;2.33;;
23113;SDS011;11726;50.122;8.832;2023-04-15T13:45:23;2.83;;;1.90;;
23113;SDS011;11726;50.122;8.832;2023-04-15T13:47:50;4.78;;;2.00;;
23113;SDS011;11726;50.122;8.832;2023-04-15T13:50:18;2.40;;;2.10;;
23113;SDS011;11726;50.122;8.832;2023-04-15T13:52:45;1.50;;;1.40;;
23113;SDS011;11726;50.122;8.832;2023-04-15T13:55:12;1.30;;;1.20;;
23113;SDS011;11726;50.122;8.832;2023-04-15T13:57:46;1.58;;;1.20;;
23113;SDS011;11726;50.122;8.832;2023-04-15T14:00:13;1.52;;;1.27;;
23113;SDS011;11726;50.122;8.832;2023-04-15T14:02:40;1.45;;;1.15;;
23113;SDS011;11726;50.122;8.832;2023-04-15T14:05:07;0.93;;;0.88;;
23113;SDS011;11726;50.122;8.832;2023-04-15T14:07:35;1.05;;;0.95;;
23113;SDS011;11726;50.122;8.832;2023-04-15T14:10:02;1.08;;;0.90;;
23113;SDS011;11726;50.122;8.832;2023-04-15T14:12:29;1.08;;;0.98;;
23113;SDS011;11726;50.122;8.832;2023-04-15T14:14:56;1.23;;;1.13;;
23113;SDS011;11726;50.122;8.832;2023-04-15T14:17:23;1.60;;;1.08;;
23113;SDS011;11726;50.122;8.832;2023-04-15T14:19:49;1.05;;;0.95;;
23113;SDS011;11726;50.122;8.832;2023-04-15T14:22:16;1.95;;;1.10;;
23113;SDS011;11726;50.122;8.832;2023-04-15T14:24:44;2.00;;;1.13;;
23113;SDS011;11726;50.122;8.832;2023-04-15T14:27:10;1.05;;;1.02;;
23113;SDS011;11726;50.122;8.832;2023-04-15T14:29:37;2.40;;;1.75;;
23113;SDS011;11726;50.122;8.832;2023-04-15T14:32:04;6.55;;;4.03;;
23113;SDS011;11726;50.122;8.832;2023-04-15T14:34:38;3.33;;;2.40;;
23113;SDS011;11726;50.122;8.832;2023-04-15T14:37:05;4.72;;;2.10;;
23113;SDS011;11726;50.122;8.832;2023-04-15T14:39:32;2.58;;;2.10;;
23113;SDS011;11726;50.122;8.832;2023-04-15T14:41:58;1.70;;;1.60;;
23113;SDS011;11726;50.122;8.832;2023-04-15T14:44:25;1.98;;;1.88;;
23113;SDS011;11726;50.122;8.832;2023-04-15T14:46:52;2.35;;;2.00;;
23113;SDS011;11726;50.122;8.832;2023-04-15T14:49:19;2.35;;;2.15;;
23113;SDS011;11726;50.122;8.832;2023-04-15T14:51:47;2.15;;;1.95;;
23113;SDS011;11726;50.122;8.832;2023-04-15T14:54:13;2.33;;;2.13;;
23113;SDS011;11726;50.122;8.832;2023-04-15T14:56:41;2.10;;;2.00;;
23113;SDS011;11726;50.122;8.832;2023-04-15T14:59:08;2.38;;;2.17;;
23113;SDS011;11726;50.122;8.832;2023-04-15T15:01:35;2.40;;;1.90;;